createdAt,value
2023-03-19T00:02:17.540Z,47.80
2023-03-19T00:04:46.180Z,47.53
2023-03-19T00:07:14.441Z,47.47
2023-03-19T00:09:44.072Z,47.33
2023-03-19T00:12:12.929Z,47.80
2023-03-19T00:14:40.793Z,47.57
2023-03-19T00:17:08.833Z,47.90
2023-03-19T00:19:36.706Z,47.63
2023-03-19T00:22:04.698Z,47.93
2023-03-19T00:24:32.690Z,47.53
2023-03-19T00:27:03.602Z,47.80
2023-03-19T00:29:31.651Z,47.83
2023-03-19T00:31:59.473Z,47.67
2023-03-19T00:34:27.353Z,47.73
2023-03-19T00:36:56.265Z,47.77
2023-03-19T00:39:24.334Z,48.10
2023-03-19T00:41:52.413Z,47.77
2023-03-19T00:44:21.564Z,47.53
2023-03-19T00:46:49.387Z,47.50
2023-03-19T00:49:17.199Z,47.70
2023-03-19T00:51:46.022Z,47.67
2023-03-19T00:54:14.750Z,47.67
2023-03-19T00:56:42.590Z,47.87
2023-03-19T00:59:10.482Z,47.50
2023-03-19T01:01:39.686Z,47.73
2023-03-19T01:04:07.581Z,47.87
2023-03-19T01:06:35.569Z,47.63
2023-03-19T01:09:03.404Z,47.70
2023-03-19T01:11:32.154Z,47.87
2023-03-19T01:13:59.963Z,47.83
2023-03-19T01:16:28.107Z,47.90
2023-03-19T01:18:57.783Z,47.80
2023-03-19T01:21:25.735Z,47.97
2023-03-19T01:23:53.798Z,48.00
2023-03-19T01:26:23.722Z,47.90
2023-03-19T01:28:55.738Z,47.70
2023-03-19T01:31:24.138Z,47.77
2023-03-19T01:33:52.579Z,47.87
2023-03-19T01:36:38.427Z,47.60
2023-03-19T01:39:08.610Z,47.90
2023-03-19T01:41:36.870Z,47.67
2023-03-19T01:44:28.889Z,47.60
2023-03-19T01:47:19.003Z,47.60
2023-03-19T01:50:06.454Z,47.57
2023-03-19T01:52:36.301Z,47.57
2023-03-19T01:55:23.370Z,47.60
2023-03-19T01:58:11.911Z,47.90
2023-03-19T02:01:18.797Z,47.57
2023-03-19T02:03:51.383Z,48.00
2023-03-19T02:06:25.324Z,47.53
2023-03-19T02:08:56.022Z,47.90
2023-03-19T02:11:24.437Z,47.53
2023-03-19T02:13:52.304Z,47.70
2023-03-19T02:16:20.634Z,48.00
2023-03-19T02:18:49.465Z,47.73
2023-03-19T02:21:19.458Z,47.63
2023-03-19T02:23:54.673Z,47.60
2023-03-19T02:26:37.990Z,47.53
2023-03-19T02:29:06.146Z,47.57
2023-03-19T02:31:36.387Z,47.77
2023-03-19T02:34:07.652Z,47.80
2023-03-19T02:36:38.173Z,47.73
2023-03-19T02:39:11.972Z,47.60
2023-03-19T02:41:43.790Z,47.47
2023-03-19T02:44:13.146Z,47.63
2023-03-19T02:46:41.055Z,47.67
2023-03-19T02:49:08.883Z,47.70
2023-03-19T02:51:37.424Z,47.70
2023-03-19T02:54:05.824Z,47.67
2023-03-19T02:56:33.745Z,47.60
2023-03-19T02:59:02.920Z,47.53
2023-03-19T03:01:30.873Z,47.53
2023-03-19T03:03:58.927Z,47.70
2023-03-19T03:06:26.740Z,47.63
2023-03-19T03:08:54.591Z,47.50
2023-03-19T03:11:22.723Z,47.73
2023-03-19T03:13:50.815Z,47.73
2023-03-19T03:16:20.072Z,47.47
2023-03-19T03:18:47.868Z,47.40
2023-03-19T03:21:19.826Z,47.73
2023-03-19T03:23:48.077Z,47.77
2023-03-19T03:26:16.036Z,47.60
2023-03-19T03:28:44.294Z,47.60
2023-03-19T03:31:12.259Z,47.53
2023-03-19T03:33:43.002Z,47.40
2023-03-19T03:36:11.249Z,47.57
2023-03-19T03:38:39.821Z,47.67
2023-03-19T03:41:07.886Z,47.60
2023-03-19T03:43:36.236Z,47.60
2023-03-19T03:46:04.344Z,47.80
2023-03-19T03:48:32.250Z,47.47
2023-03-19T03:51:01.403Z,47.67
2023-03-19T03:53:29.785Z,47.80
2023-03-19T04:00:16.780Z,47.60
2023-03-19T04:02:45.899Z,47.77
2023-03-19T04:05:16.850Z,47.40
2023-03-19T04:07:46.821Z,47.47
2023-03-19T04:10:15.908Z,47.57
2023-03-19T04:12:45.792Z,47.50
2023-03-19T04:15:13.843Z,47.53
2023-03-19T04:17:45.290Z,47.53
2023-03-19T04:20:16.125Z,47.60
2023-03-19T04:22:44.046Z,47.53
2023-03-19T04:25:13.520Z,47.80
2023-03-19T04:27:41.765Z,47.53
2023-03-19T04:30:11.703Z,47.53
2023-03-19T04:32:39.969Z,47.57
2023-03-19T04:35:08.670Z,47.60
2023-03-19T04:37:36.715Z,47.60
2023-03-19T04:40:05.766Z,47.80
2023-03-19T04:42:37.438Z,47.57
2023-03-19T04:45:10.287Z,47.57
2023-03-19T04:47:38.257Z,47.57
2023-03-19T04:50:08.287Z,47.63
2023-03-19T04:52:38.198Z,47.27
2023-03-19T04:55:06.780Z,47.27
2023-03-19T04:57:46.481Z,47.40
2023-03-19T05:00:16.110Z,47.60
2023-03-19T05:02:45.218Z,47.17
2023-03-19T05:05:13.486Z,47.43
2023-03-19T05:07:42.230Z,47.23
2023-03-19T05:10:12.378Z,47.43
2023-03-19T05:12:41.005Z,47.50
2023-03-19T05:15:11.245Z,47.47
2023-03-19T05:17:45.847Z,47.30
2023-03-19T05:20:21.694Z,47.37
2023-03-19T05:22:55.622Z,47.30
2023-03-19T05:25:32.519Z,47.20
2023-03-19T05:28:00.415Z,47.43
2023-03-19T05:30:29.815Z,47.50
2023-03-19T05:33:05.548Z,47.37
2023-03-19T05:35:37.793Z,47.50
2023-03-19T05:38:11.733Z,47.40
2023-03-19T05:40:42.725Z,47.30
2023-03-19T05:43:22.304Z,47.40
2023-03-19T05:45:53.100Z,47.20
2023-03-19T05:48:25.805Z,47.13
2023-03-19T05:50:53.670Z,47.30
2023-03-19T05:53:23.884Z,47.50
2023-03-19T05:56:08.305Z,47.30
2023-03-19T05:58:46.924Z,47.23
2023-03-19T06:01:20.216Z,47.27
2023-03-19T06:03:48.148Z,47.37
2023-03-19T06:06:17.249Z,47.23
2023-03-19T06:08:46.778Z,47.43
2023-03-19T06:11:27.675Z,47.47
2023-03-19T06:14:15.537Z,47.57
2023-03-19T06:16:50.781Z,47.60
2023-03-19T06:19:18.914Z,47.63
2023-03-19T06:21:46.708Z,47.47
2023-03-19T06:24:14.571Z,47.47
2023-03-19T06:26:42.621Z,47.60
2023-03-19T06:29:16.851Z,47.57
2023-03-19T06:31:50.292Z,47.40
2023-03-19T06:34:38.410Z,47.50
2023-03-19T06:37:07.380Z,47.50
2023-03-19T06:39:35.255Z,47.63
2023-03-19T06:42:03.220Z,47.57
2023-03-19T06:44:31.100Z,47.67
2023-03-19T06:47:00.260Z,47.90
2023-03-19T06:49:28.289Z,47.97
2023-03-19T06:51:56.103Z,48.03
2023-03-19T06:54:24.194Z,47.97
2023-03-19T06:56:51.988Z,48.13
2023-03-19T06:59:19.892Z,47.90
2023-03-19T07:01:47.763Z,48.00
2023-03-19T07:04:17.067Z,48.20
2023-03-19T07:06:44.936Z,48.37
2023-03-19T07:09:12.879Z,48.43
2023-03-19T07:11:41.138Z,48.37
2023-03-19T07:14:08.969Z,48.27
2023-03-19T07:16:37.030Z,48.27
2023-03-19T07:19:05.149Z,48.27
2023-03-19T07:21:34.275Z,48.57
2023-03-19T07:24:02.491Z,48.60
2023-03-19T07:26:30.522Z,48.47
2023-03-19T07:28:58.468Z,48.57
2023-03-19T07:31:26.408Z,48.90
2023-03-19T07:33:54.252Z,48.47
2023-03-19T07:36:22.583Z,48.27
2023-03-19T07:38:51.746Z,48.27
2023-03-19T07:41:19.821Z,48.30
2023-03-19T07:43:47.814Z,48.33
2023-03-19T07:46:15.763Z,48.43
2023-03-19T07:48:43.614Z,48.23
2023-03-19T07:51:11.435Z,48.33
2023-03-19T07:53:39.284Z,48.23
2023-03-19T07:56:09.003Z,48.50
2023-03-19T07:58:36.809Z,48.47
2023-03-19T08:01:05.130Z,48.80
2023-03-19T08:03:33.308Z,48.30
2023-03-19T08:06:01.528Z,48.40
2023-03-19T08:08:29.349Z,48.33
2023-03-19T08:10:57.553Z,48.27
2023-03-19T08:13:26.761Z,48.50
2023-03-19T08:15:56.244Z,48.30
2023-03-19T08:18:24.307Z,48.30
2023-03-19T08:20:52.474Z,48.60
2023-03-19T08:23:20.802Z,48.80
2023-03-19T08:25:51.662Z,48.83
2023-03-19T08:28:19.446Z,48.63
2023-03-19T08:30:49.009Z,48.67
2023-03-19T08:33:17.594Z,48.63
2023-03-19T08:35:45.703Z,48.23
2023-03-19T08:38:13.572Z,48.53
2023-03-19T08:40:41.387Z,48.37
2023-03-19T08:43:09.277Z,48.43
2023-03-19T08:45:37.136Z,48.57
2023-03-19T08:48:06.507Z,48.43
2023-03-19T08:50:34.550Z,48.67
2023-03-19T08:53:02.567Z,48.80
2023-03-19T08:55:30.392Z,48.50
2023-03-19T08:57:58.208Z,49.07
2023-03-19T09:00:27.230Z,49.10
2023-03-19T09:02:55.064Z,48.80
2023-03-19T09:05:24.242Z,48.90
2023-03-19T09:07:52.775Z,48.50
2023-03-19T09:10:20.732Z,48.60
2023-03-19T09:12:48.726Z,48.63
2023-03-19T09:15:16.921Z,48.60
2023-03-19T09:17:44.727Z,48.80
2023-03-19T09:20:12.861Z,49.00
2023-03-19T09:22:42.056Z,48.93
2023-03-19T09:25:10.751Z,49.33
2023-03-19T09:27:38.630Z,48.93
2023-03-19T09:30:09.690Z,49.17
2023-03-19T09:32:37.828Z,48.87
2023-03-19T09:35:06.417Z,49.00
2023-03-19T09:37:34.333Z,49.07
2023-03-19T09:40:04.827Z,48.90
2023-03-19T09:42:48.690Z,48.90
2023-03-19T09:45:19.418Z,48.77
2023-03-19T09:47:50.861Z,49.00
2023-03-19T09:50:20.660Z,49.00
2023-03-19T09:52:51.796Z,49.10
2023-03-19T09:55:36.973Z,49.33
2023-03-19T09:58:13.455Z,49.60
2023-03-19T10:00:42.482Z,49.63
2023-03-19T10:03:29.029Z,49.40
2023-03-19T10:06:05.525Z,49.47
2023-03-19T10:08:46.070Z,49.37
2023-03-19T10:11:33.589Z,49.40
2023-03-19T10:14:14.665Z,49.27
2023-03-19T10:16:46.643Z,49.40
2023-03-19T10:19:19.320Z,49.57
2023-03-19T10:21:51.953Z,49.60
2023-03-19T10:24:25.631Z,49.57
2023-03-19T10:27:00.155Z,49.50
2023-03-19T10:29:29.224Z,49.50
2023-03-19T10:32:04.871Z,49.30
2023-03-19T10:34:35.023Z,49.47
2023-03-19T10:37:05.047Z,49.50
2023-03-19T10:39:35.745Z,49.53
2023-03-19T10:42:21.350Z,49.30
2023-03-19T10:44:52.612Z,49.50
2023-03-19T10:47:22.588Z,49.37
2023-03-19T10:49:51.995Z,49.40
2023-03-19T10:52:24.891Z,49.47
2023-03-19T10:54:56.934Z,49.53
2023-03-19T10:57:28.234Z,49.90
2023-03-19T10:59:56.866Z,49.67
2023-03-19T11:02:30.920Z,49.63
2023-03-19T11:05:19.330Z,49.47
2023-03-19T11:07:50.809Z,49.67
2023-03-19T11:10:19.812Z,49.87
2023-03-19T11:12:57.910Z,49.73
2023-03-19T11:15:30.478Z,49.97
2023-03-19T11:18:00.103Z,49.50
2023-03-19T11:20:33.381Z,49.80
2023-03-19T11:23:04.097Z,49.93
2023-03-19T11:25:37.030Z,50.17
2023-03-19T11:28:09.870Z,50.13
2023-03-19T11:30:47.502Z,49.50
2023-03-19T11:33:46.776Z,50.00
2023-03-19T11:36:19.017Z,49.73
2023-03-19T11:39:00.564Z,50.17
2023-03-19T11:41:43.302Z,49.93
2023-03-19T11:44:16.290Z,50.07
2023-03-19T11:46:54.310Z,49.97
2023-03-19T11:49:51.254Z,50.07
2023-03-19T11:52:26.393Z,50.07
2023-03-19T11:55:11.528Z,50.13
2023-03-19T11:58:00.178Z,49.97
2023-03-19T12:00:36.755Z,50.00
2023-03-19T12:03:25.233Z,50.17
2023-03-19T12:05:57.446Z,49.90
2023-03-19T12:08:33.702Z,50.27
2023-03-19T12:11:16.677Z,50.20
2023-03-19T12:14:03.521Z,50.27
2023-03-19T12:16:46.767Z,50.17
2023-03-19T12:19:34.683Z,50.07
2023-03-19T12:22:13.348Z,50.27
2023-03-19T12:25:04.234Z,49.93
2023-03-19T12:27:37.555Z,50.03
2023-03-19T12:30:16.466Z,50.10
2023-03-19T12:32:59.336Z,49.67
2023-03-19T12:35:34.575Z,50.37
2023-03-19T12:38:07.820Z,50.40
2023-03-19T12:40:41.671Z,50.20
2023-03-19T12:43:18.306Z,50.07
2023-03-19T12:45:49.008Z,49.97
2023-03-19T12:48:24.108Z,50.23
2023-03-19T12:50:55.730Z,50.30
2023-03-19T12:53:32.822Z,50.23
2023-03-19T12:56:08.113Z,50.47
2023-03-19T12:58:47.044Z,50.00
2023-03-19T13:01:19.937Z,50.17
2023-03-19T13:03:56.460Z,50.27
2023-03-19T13:06:29.066Z,50.57
2023-03-19T13:09:05.294Z,50.60
2023-03-19T13:11:40.666Z,50.33
2023-03-19T13:14:19.306Z,50.73
2023-03-19T13:16:53.879Z,50.97
2023-03-19T13:19:30.548Z,50.83
2023-03-19T13:22:01.447Z,50.67
2023-03-19T13:24:32.646Z,50.80
2023-03-19T13:27:01.866Z,51.23
2023-03-19T13:29:31.996Z,51.43
2023-03-19T13:32:06.432Z,50.70
2023-03-19T13:34:37.905Z,51.20
2023-03-19T13:37:14.767Z,51.17
2023-03-19T13:39:44.279Z,50.57
2023-03-19T13:42:25.150Z,50.77
2023-03-19T13:44:57.048Z,50.43
2023-03-19T13:47:44.112Z,50.53
2023-03-19T13:50:27.276Z,50.57
2023-03-19T13:53:11.395Z,50.20
2023-03-19T13:55:54.880Z,50.60
2023-03-19T13:58:42.967Z,50.77
2023-03-19T14:01:13.103Z,50.07
2023-03-19T14:03:52.698Z,50.50
2023-03-19T14:06:37.118Z,50.67
2023-03-19T14:09:06.688Z,50.57
2023-03-19T14:11:37.820Z,50.63
2023-03-19T14:14:08.368Z,50.47
2023-03-19T14:16:39.164Z,50.50
2023-03-19T14:19:13.330Z,50.57
2023-03-19T14:21:47.159Z,50.77
2023-03-19T14:27:23.743Z,50.23
2023-03-19T14:29:52.115Z,50.43
2023-03-19T14:32:26.705Z,50.00
2023-03-19T14:34:56.259Z,50.07
2023-03-19T14:37:28.284Z,50.33
2023-03-19T14:40:04.331Z,50.07
2023-03-19T14:42:39.317Z,50.07
2023-03-19T14:45:29.252Z,50.17
2023-03-19T14:48:40.491Z,50.10
2023-03-19T14:51:49.748Z,50.07
2023-03-19T14:54:26.582Z,50.37
2023-03-19T14:56:57.634Z,50.23
2023-03-19T14:59:25.467Z,50.17
2023-03-19T15:01:54.725Z,50.37
2023-03-19T15:04:25.482Z,50.27
2023-03-19T15:06:55.773Z,50.03
2023-03-19T15:09:29.654Z,50.33
2023-03-19T15:12:31.162Z,50.40
2023-03-19T15:15:21.351Z,50.03
2023-03-19T15:18:03.128Z,49.97
2023-03-19T15:20:37.103Z,50.00
2023-03-19T15:23:23.417Z,50.27
2023-03-19T15:25:57.741Z,50.23
2023-03-19T15:28:27.818Z,50.10
2023-03-19T15:31:05.942Z,50.00
2023-03-19T15:33:44.676Z,50.07
2023-03-19T15:36:18.533Z,49.93
2023-03-19T15:38:50.375Z,49.90
2023-03-19T15:41:20.422Z,49.80
2023-03-19T15:43:48.530Z,50.07
2023-03-19T15:46:19.688Z,49.87
2023-03-19T15:48:52.716Z,49.80
2023-03-19T15:51:22.581Z,49.63
2023-03-19T15:53:50.870Z,49.73
2023-03-19T15:56:21.585Z,50.10
2023-03-19T15:58:53.304Z,49.73
2023-03-19T16:01:22.345Z,49.90
2023-03-19T16:03:57.327Z,50.10
2023-03-19T16:06:27.689Z,49.73
2023-03-19T16:08:57.356Z,49.97
2023-03-19T16:11:31.740Z,49.97
2023-03-19T16:14:01.667Z,49.93
2023-03-19T16:16:32.120Z,49.83
2023-03-19T16:19:00.370Z,50.00
2023-03-19T16:21:35.316Z,49.93
2023-03-19T16:24:05.543Z,49.80
2023-03-19T16:26:41.022Z,49.83
2023-03-19T16:29:19.310Z,49.93
2023-03-19T16:31:51.805Z,50.27
2023-03-19T16:34:26.510Z,50.23
2023-03-19T16:36:54.360Z,49.87
2023-03-19T16:39:31.481Z,50.07
2023-03-19T16:42:27.799Z,49.80
2023-03-19T16:44:55.671Z,49.77
2023-03-19T16:47:23.826Z,50.07
2023-03-19T16:49:51.602Z,49.63
2023-03-19T16:52:21.681Z,49.97
2023-03-19T16:54:49.877Z,49.50
2023-03-19T16:57:20.209Z,49.53
2023-03-19T16:59:49.076Z,49.57
2023-03-19T17:02:18.979Z,49.60
2023-03-19T17:04:47.370Z,49.50
2023-03-19T17:07:15.266Z,49.50
2023-03-19T17:09:43.116Z,49.37
2023-03-19T17:12:16.121Z,49.47
2023-03-19T17:14:45.471Z,49.50
2023-03-19T17:17:19.531Z,49.20
2023-03-19T17:19:47.753Z,49.50
2023-03-19T17:22:15.606Z,49.37
2023-03-19T17:24:43.671Z,49.83
2023-03-19T17:27:11.731Z,49.37
2023-03-19T17:29:39.567Z,49.57
2023-03-19T17:32:17.371Z,49.33
2023-03-19T17:34:45.381Z,49.47
2023-03-19T17:37:14.721Z,49.50
2023-03-19T17:39:43.235Z,49.27
2023-03-19T17:42:19.842Z,49.07
2023-03-19T17:44:47.642Z,49.20
2023-03-19T17:47:18.457Z,49.40
2023-03-19T17:49:47.294Z,49.17
2023-03-19T17:52:16.559Z,49.17
2023-03-19T17:54:44.688Z,49.10
2023-03-19T17:57:15.260Z,49.17
2023-03-19T17:59:43.087Z,49.27
2023-03-19T18:02:25.831Z,49.20
2023-03-19T18:04:53.983Z,49.30
2023-03-19T18:07:21.871Z,49.07
2023-03-19T18:09:49.748Z,49.17
2023-03-19T18:12:17.565Z,49.07
2023-03-19T18:14:45.389Z,49.30
2023-03-19T18:17:18.305Z,49.17
2023-03-19T18:19:50.511Z,49.23
2023-03-19T18:22:20.111Z,49.53
2023-03-19T18:24:48.019Z,49.10
2023-03-19T18:27:15.831Z,49.07
2023-03-19T18:29:43.691Z,48.77
2023-03-19T18:32:15.715Z,48.83
2023-03-19T18:34:44.992Z,48.93
2023-03-19T18:37:17.097Z,48.73
2023-03-19T18:39:45.042Z,48.87
2023-03-19T18:42:14.260Z,48.93
2023-03-19T18:44:42.336Z,48.87
2023-03-19T18:47:14.111Z,48.93
2023-03-19T18:49:42.194Z,48.97
2023-03-19T18:52:18.492Z,49.20
2023-03-19T18:54:47.103Z,48.87
2023-03-19T18:57:16.877Z,48.90
2023-03-19T18:59:44.879Z,49.07
2023-03-19T19:02:22.834Z,48.93
2023-03-19T19:04:50.750Z,48.67
2023-03-19T19:07:19.929Z,48.70
2023-03-19T19:09:47.721Z,48.53
2023-03-19T19:12:18.289Z,48.70
2023-03-19T19:14:47.030Z,48.90
2023-03-19T19:17:18.325Z,48.83
2023-03-19T19:19:46.285Z,48.97
2023-03-19T19:22:16.314Z,48.67
2023-03-19T19:24:46.035Z,48.37
2023-03-19T19:27:17.881Z,48.80
2023-03-19T19:29:46.596Z,48.73
2023-03-19T19:32:21.564Z,48.37
2023-03-19T19:34:49.384Z,48.37
2023-03-19T19:37:18.803Z,48.60
2023-03-19T19:39:48.018Z,48.53
2023-03-19T19:42:18.025Z,48.57
2023-03-19T19:44:50.742Z,48.37
2023-03-19T19:47:18.891Z,48.50
2023-03-19T19:49:46.728Z,48.33
2023-03-19T19:52:15.502Z,48.37
2023-03-19T19:54:43.462Z,48.43
2023-03-19T19:57:22.449Z,48.50
2023-03-19T19:59:50.912Z,48.73
2023-03-19T20:02:22.999Z,48.43
2023-03-19T20:04:51.128Z,48.47
2023-03-19T20:07:19.170Z,48.50
2023-03-19T20:09:47.689Z,48.27
2023-03-19T20:12:25.797Z,48.57
2023-03-19T20:14:53.913Z,48.27
2023-03-19T20:17:22.079Z,48.27
2023-03-19T20:19:50.188Z,48.37
2023-03-19T20:22:18.191Z,48.40
2023-03-19T20:24:50.301Z,48.00
2023-03-19T20:27:22.356Z,48.40
2023-03-19T20:29:53.524Z,48.23
2023-03-19T20:32:32.671Z,48.27
2023-03-19T20:35:01.360Z,48.23
2023-03-19T20:37:29.723Z,48.10
2023-03-19T20:39:57.608Z,48.23
2023-03-19T20:42:27.712Z,48.07
2023-03-19T20:44:59.778Z,48.00
2023-03-19T20:47:27.716Z,47.80
2023-03-19T20:49:55.534Z,48.10
2023-03-19T20:52:23.343Z,48.27
2023-03-19T20:54:51.149Z,48.00
2023-03-19T20:57:22.484Z,48.50
2023-03-19T20:59:50.550Z,48.07
2023-03-19T21:02:21.966Z,48.17
2023-03-19T21:04:50.181Z,48.10
2023-03-19T21:07:28.528Z,48.33
2023-03-19T21:09:57.704Z,47.97
2023-03-19T21:12:29.414Z,48.07
2023-03-19T21:14:57.761Z,48.00
2023-03-19T21:17:28.473Z,48.27
2023-03-19T21:19:56.516Z,48.13
2023-03-19T21:22:27.153Z,47.87
2023-03-19T21:25:03.120Z,47.73
2023-03-19T21:27:32.753Z,47.77
2023-03-19T21:30:00.909Z,47.90
2023-03-19T21:32:30.190Z,47.90
2023-03-19T21:34:58.131Z,47.90
2023-03-19T21:37:25.976Z,47.97
2023-03-19T21:39:53.768Z,47.90
2023-03-19T21:42:23.194Z,47.87
2023-03-19T21:44:57.551Z,48.00
2023-03-19T21:47:25.787Z,47.80
2023-03-19T21:49:55.282Z,47.73
2023-03-19T21:52:23.108Z,47.63
2023-03-19T21:54:50.928Z,47.70
2023-03-19T21:57:18.802Z,47.60
2023-03-19T21:59:46.858Z,47.67
2023-03-19T22:02:41.110Z,47.63
2023-03-19T22:05:25.201Z,47.40
2023-03-19T22:07:53.625Z,47.93
2023-03-19T22:10:23.772Z,47.93
2023-03-19T22:12:52.663Z,47.63
2023-03-19T22:15:26.349Z,47.40
2023-03-19T22:17:54.171Z,47.60
2023-03-19T22:20:26.276Z,47.60
2023-03-19T22:22:55.315Z,47.53
2023-03-19T22:25:33.260Z,47.50
2023-03-19T22:28:01.697Z,47.67
2023-03-19T22:30:36.336Z,47.33
2023-03-19T22:33:10.454Z,47.50
2023-03-19T22:35:39.701Z,47.23
2023-03-19T22:38:07.806Z,47.37
2023-03-19T22:40:36.274Z,47.57
2023-03-19T22:43:07.041Z,47.30
2023-03-19T22:45:35.076Z,47.40
2023-03-19T22:48:03.750Z,47.50
2023-03-19T22:50:33.671Z,47.50
2023-03-19T22:53:02.819Z,47.33
2023-03-19T22:55:30.631Z,47.53
2023-03-19T22:57:58.435Z,47.30
2023-03-19T23:00:26.358Z,47.33
2023-03-19T23:02:57.776Z,47.13
2023-03-19T23:05:29.394Z,47.20
2023-03-19T23:07:57.609Z,47.27
2023-03-19T23:10:29.712Z,47.23
2023-03-19T23:12:58.092Z,47.40
2023-03-19T23:15:28.468Z,47.33
2023-03-19T23:17:59.183Z,47.60
2023-03-19T23:20:28.882Z,47.57
2023-03-19T23:22:57.564Z,47.47
2023-03-19T23:25:29.159Z,47.23
2023-03-19T23:28:00.855Z,47.07
2023-03-19T23:30:31.439Z,47.10
2023-03-19T23:33:01.597Z,47.30
2023-03-19T23:35:31.136Z,47.37
2023-03-19T23:37:59.098Z,47.53
2023-03-19T23:40:31.807Z,47.47
2023-03-19T23:43:01.216Z,47.40
2023-03-19T23:45:35.254Z,47.40
2023-03-19T23:48:06.499Z,47.40
2023-03-19T23:50:35.085Z,47.40
2023-03-19T23:53:02.938Z,47.40
2023-03-19T23:55:33.106Z,47.27
2023-03-19T23:58:02.876Z,47.50
